Time;durP1;ratioP1;P1;durP2;ratioP2;P2;SDS_P1;SDS_P2;PMS_P1;PMS_P2;Temp;Humidity;BMP_temperature;BMP_pressure;BME280_temperature;BME280_humidity;BME280_pressure;Samples;Min_cycle;Max_cycle;Signal;HPM_P1;HPM_P2
2021/04/08 00:01:06;;;;;;;1.80;0.63;;;19.10;48.70;;;;;;10368797;28;20210;-61
2021/04/08 00:06:27;;;;;;;3.27;1.00;;;19.00;48.70;;;;;;10374234;28;20210;-61
2021/04/08 00:11:49;;;;;;;3.27;0.97;;;19.00;48.70;;;;;;10374142;28;20301;-60
2021/04/08 00:17:12;;;;;;;0.93;0.60;;;19.00;48.80;;;;;;10375659;28;20394;-61
2021/04/08 00:22:33;;;;;;;1.73;0.80;;;19.00;48.80;;;;;;10373354;28;20239;-60
2021/04/08 00:27:55;;;;;;;2.27;0.90;;;19.00;48.70;;;;;;10373281;28;20201;-59
2021/04/08 00:33:19;;;;;;;1.10;0.60;;;19.00;48.70;;;;;;10373420;28;20230;-59
2021/04/08 00:38:41;;;;;;;2.90;0.70;;;19.00;48.70;;;;;;10372833;28;20187;-61
2021/04/08 00:44:02;;;;;;;2.20;0.90;;;19.00;48.70;;;;;;10371371;28;20225;-60
2021/04/08 00:49:25;;;;;;;2.00;0.73;;;18.90;48.70;;;;;;10373501;28;20225;-58
2021/04/08 00:54:47;;;;;;;1.73;0.90;;;18.90;48.70;;;;;;10372541;28;20253;-60
2021/04/08 01:00:11;;;;;;;3.30;1.20;;;19.00;48.70;;;;;;10370778;28;20214;-58
2021/04/08 01:05:34;;;;;;;1.80;0.70;;;19.00;48.70;;;;;;10372798;28;20194;-59
2021/04/08 01:10:55;;;;;;;1.63;0.70;;;19.00;48.70;;;;;;10372210;28;20230;-61
2021/04/08 01:16:23;;;;;;;2.50;0.90;;;19.00;49.30;;;;;;10372340;28;20225;-61
2021/04/08 01:21:54;;;;;;;1.73;0.60;;;18.90;48.70;;;;;;10370813;28;20207;-58
2021/04/08 01:27:54;;;;;;;1.67;0.73;;;19.00;48.80;;;;;;10372669;28;20209;-60
2021/04/08 01:33:25;;;;;;;1.83;0.80;;;19.00;48.70;;;;;;10338635;28;20905;-59
2021/04/08 01:38:50;;;;;;;1.97;0.83;;;19.00;48.60;;;;;;10369992;28;20563;-59
2021/04/08 01:44:16;;;;;;;1.80;0.73;;;19.00;48.60;;;;;;10371877;28;20218;-59
2021/04/08 01:49:43;;;;;;;2.33;1.00;;;19.00;48.60;;;;;;10369844;28;20210;-56
2021/04/08 01:55:05;;;;;;;1.93;0.97;;;19.00;48.60;;;;;;10369972;28;20199;-60
2021/04/08 02:00:27;;;;;;;2.00;0.63;;;19.00;48.60;;;;;;10368832;28;20217;-60
2021/04/08 02:05:50;;;;;;;1.23;0.70;;;18.90;48.60;;;;;;10370381;28;20202;-60
2021/04/08 02:11:13;;;;;;;1.77;0.70;;;18.90;48.50;;;;;;10368937;28;20222;-56
2021/04/08 02:16:36;;;;;;;1.93;0.80;;;18.90;48.50;;;;;;10368564;28;20194;-60
2021/04/08 02:22:01;;;;;;;2.50;0.77;;;18.90;48.50;;;;;;10370201;28;20210;-58
2021/04/08 02:27:23;;;;;;;1.90;1.10;;;19.00;49.00;;;;;;10369799;28;20599;-59
2021/04/08 02:32:46;;;;;;;1.70;0.80;;;18.90;48.40;;;;;;10364054;28;20593;-57
2021/04/08 02:38:08;;;;;;;1.33;0.60;;;18.90;48.50;;;;;;10370173;28;20202;-60
2021/04/08 02:43:30;;;;;;;3.07;0.90;;;18.90;48.50;;;;;;10368599;28;20210;-59
2021/04/08 02:48:51;;;;;;;2.37;0.90;;;18.90;48.50;;;;;;10368072;28;20226;-58
2021/04/08 02:54:21;;;;;;;1.20;0.67;;;19.00;48.50;;;;;;10369419;28;20213;-60
2021/04/08 02:59:47;;;;;;;1.73;0.60;;;18.90;48.40;;;;;;10367618;28;20656;-59
2021/04/08 03:05:10;;;;;;;2.57;0.90;;;19.00;48.50;;;;;;10358172;28;20252;-59
2021/04/08 03:10:34;;;;;;;1.47;0.77;;;18.90;48.40;;;;;;10367410;28;20225;-58
2021/04/08 03:15:57;;;;;;;2.27;0.80;;;18.90;48.50;;;;;;10369029;28;20198;-59
2021/04/08 03:21:22;;;;;;;1.37;0.67;;;18.90;48.50;;;;;;10362753;28;20288;-60
2021/04/08 03:26:46;;;;;;;2.50;0.90;;;18.90;48.50;;;;;;10365675;28;20198;-60
2021/04/08 03:32:09;;;;;;;1.20;0.60;;;18.90;48.40;;;;;;10363356;28;20230;-61
2021/04/08 03:37:31;;;;;;;2.50;0.83;;;18.90;48.40;;;;;;10371701;28;20205;-58
2021/04/08 03:42:54;;;;;;;2.40;0.93;;;18.90;48.30;;;;;;10373706;28;20683;-61
2021/04/08 03:48:18;;;;;;;2.23;0.97;;;18.90;48.30;;;;;;10373388;28;20209;-60
2021/04/08 03:53:40;;;;;;;1.53;0.93;;;19.00;48.30;;;;;;10375137;28;20619;-60
2021/04/08 03:59:04;;;;;;;1.60;0.80;;;19.00;48.10;;;;;;10364603;28;20209;-61
2021/04/08 04:04:26;;;;;;;2.27;0.87;;;19.00;48.00;;;;;;10374927;28;20222;-60
2021/04/08 04:09:48;;;;;;;1.80;0.80;;;19.00;48.00;;;;;;10372359;28;20218;-59
2021/04/08 04:15:12;;;;;;;1.87;0.97;;;19.00;48.00;;;;;;10373818;28;20190;-60
2021/04/08 04:20:34;;;;;;;2.03;0.93;;;19.00;48.10;;;;;;10373173;28;20245;-58
2021/04/08 04:25:56;;;;;;;1.40;0.83;;;19.10;48.20;;;;;;10372509;28;20190;-60
2021/04/08 04:31:18;;;;;;;1.80;0.90;;;19.00;48.20;;;;;;10373069;28;20687;-60
2021/04/08 04:36:40;;;;;;;2.37;0.80;;;19.10;48.10;;;;;;10369574;28;20194;-57
2021/04/08 04:42:02;;;;;;;2.40;0.70;;;19.10;48.00;;;;;;10371397;28;20300;-58
2021/04/08 04:47:24;;;;;;;2.77;0.93;;;19.10;48.00;;;;;;10372765;28;20229;-61
2021/04/08 04:52:46;;;;;;;1.47;0.73;;;19.10;48.00;;;;;;10372005;28;20289;-59
2021/04/08 04:58:08;;;;;;;1.47;0.60;;;19.10;48.00;;;;;;10372824;28;20202;-59
2021/04/08 05:03:30;;;;;;;1.80;1.00;;;19.10;48.00;;;;;;10371416;28;20216;-58
2021/04/08 05:08:52;;;;;;;1.70;0.87;;;19.10;47.90;;;;;;10419205;22;20232;-58
2021/04/08 05:14:13;;;;;;;1.60;0.70;;;19.10;47.90;;;;;;10420872;28;20217;-54
2021/04/08 05:19:36;;;;;;;1.57;0.70;;;19.20;48.00;;;;;;10420161;28;20193;-57
2021/04/08 05:24:58;;;;;;;2.67;1.03;;;19.20;47.90;;;;;;10413773;28;20248;-59
2021/04/08 05:30:20;;;;;;;4.00;0.97;;;19.20;47.80;;;;;;10413288;28;20237;-60
2021/04/08 05:35:42;;;;;;;1.20;0.70;;;19.20;47.90;;;;;;10446268;28;20574;-60
2021/04/08 05:41:04;;;;;;;4.97;0.97;;;19.20;47.90;;;;;;10413172;28;20209;-57
2021/04/08 05:46:25;;;;;;;2.30;0.77;;;19.20;48.50;;;;;;10411511;28;20197;-58
2021/04/08 05:51:48;;;;;;;1.90;0.90;;;19.20;48.00;;;;;;10411661;28;20217;-57
2021/04/08 05:57:10;;;;;;;1.80;0.80;;;19.20;48.00;;;;;;10417822;28;20193;-60
2021/04/08 06:02:32;;;;;;;1.80;0.93;;;19.20;48.00;;;;;;10442937;28;20204;-58
2021/04/08 06:07:54;;;;;;;2.17;0.93;;;19.20;48.00;;;;;;10429600;28;20232;-60
2021/04/08 06:13:16;;;;;;;5.00;0.70;;;19.20;47.80;;;;;;10407438;28;20217;-58
2021/04/08 06:18:37;;;;;;;2.57;0.90;;;19.20;47.90;;;;;;10409823;28;20571;-60
2021/04/08 06:24:00;;;;;;;1.43;0.73;;;19.20;47.90;;;;;;10408664;28;20214;-57
2021/04/08 06:29:22;;;;;;;2.20;0.90;;;19.20;48.00;;;;;;10410363;28;20560;-54
2021/04/08 06:34:43;;;;;;;3.27;0.70;;;19.20;48.00;;;;;;10432468;28;20193;-58
2021/04/08 06:40:08;;;;;;;3.53;1.00;;;19.20;48.00;;;;;;10450916;28;20216;-59
2021/04/08 06:45:30;;;;;;;1.57;0.60;;;19.10;47.90;;;;;;10451200;28;20250;-59
2021/04/08 06:50:54;;;;;;;1.73;0.70;;;19.20;47.90;;;;;;10449898;28;20217;-58
2021/04/08 06:56:17;;;;;;;1.67;0.70;;;19.20;47.90;;;;;;10421812;28;20251;-59
2021/04/08 07:01:40;;;;;;;1.43;0.83;;;19.20;47.90;;;;;;10439269;28;20221;-59
2021/04/08 07:07:02;;;;;;;1.00;0.50;;;19.20;47.80;;;;;;10450971;28;20205;-60
2021/04/08 07:12:25;;;;;;;3.50;1.00;;;19.20;47.80;;;;;;10442908;28;20291;-58
2021/04/08 07:17:47;;;;;;;1.47;0.70;;;19.20;47.80;;;;;;10458107;28;20566;-58
2021/04/08 07:23:10;;;;;;;2.17;0.57;;;19.20;47.90;;;;;;10457630;28;20551;-59
2021/04/08 07:28:35;;;;;;;1.97;0.80;;;19.30;47.90;;;;;;10436872;28;20212;-59
2021/04/08 07:33:58;;;;;;;3.77;0.90;;;19.30;47.90;;;;;;10418426;28;20221;-60
2021/04/08 07:39:19;;;;;;;11.00;1.23;;;19.30;47.80;;;;;;10421112;28;20246;-60
2021/04/08 07:44:50;;;;;;;7.00;1.13;;;19.30;48.20;;;;;;10419103;28;20213;-60
2021/04/08 07:50:15;;;;;;;2.97;0.90;;;19.30;47.90;;;;;;10416090;28;20250;-59
2021/04/08 07:55:37;;;;;;;1.67;0.70;;;19.20;48.00;;;;;;10415916;28;20201;-60
2021/04/08 08:01:00;;;;;;;3.23;0.83;;;19.20;48.10;;;;;;10414042;28;20264;-60
2021/04/08 08:06:35;;;;;;;3.70;1.00;;;19.20;48.20;;;;;;10415542;28;20198;-60
2021/04/08 08:12:08;;;;;;;3.47;1.00;;;19.20;48.20;;;;;;10420600;28;20241;-60
2021/04/08 08:17:35;;;;;;;2.80;1.00;;;19.20;48.10;;;;;;10415314;28;20197;-58
2021/04/08 08:22:57;;;;;;;2.27;1.10;;;19.20;48.20;;;;;;10412954;28;20723;-60
2021/04/08 08:28:19;;;;;;;5.63;0.87;;;19.20;48.20;;;;;;10421950;28;20201;-59
2021/04/08 08:33:41;;;;;;;3.13;0.70;;;19.20;48.20;;;;;;10456057;28;20205;-60
2021/04/08 08:39:05;;;;;;;2.57;0.93;;;19.20;48.30;;;;;;10439666;28;20189;-59
2021/04/08 08:44:27;;;;;;;1.60;1.00;;;19.20;48.20;;;;;;10422622;28;20529;-60
2021/04/08 08:49:52;;;;;;;3.10;0.67;;;19.20;48.20;;;;;;10426792;28;20240;-59
2021/04/08 08:55:18;;;;;;;4.90;1.10;;;19.30;48.10;;;;;;10444171;28;20220;-59
2021/04/08 09:00:40;;;;;;;2.27;0.90;;;19.30;48.10;;;;;;10427112;28;20213;-54
2021/04/08 09:06:06;;;;;;;1.33;0.73;;;19.30;48.10;;;;;;10413635;28;20286;-54
2021/04/08 09:11:32;;;;;;;2.87;1.07;;;19.30;48.10;;;;;;10413221;28;20288;-53
2021/04/08 09:16:54;;;;;;;3.10;1.07;;;19.30;48.20;;;;;;10413241;28;20190;-55
2021/04/08 09:22:17;;;;;;;1.83;0.80;;;19.30;48.20;;;;;;10412071;28;20210;-56
2021/04/08 09:27:50;;;;;;;1.73;0.90;;;19.30;48.20;;;;;;10407873;28;20285;-57
2021/04/08 09:33:12;;;;;;;1.83;0.70;;;19.30;48.20;;;;;;10412328;28;20225;-57
2021/04/08 09:38:35;;;;;;;2.13;0.93;;;19.30;48.20;;;;;;10434674;28;20201;-59
2021/04/08 09:43:57;;;;;;;3.17;1.07;;;19.30;48.20;;;;;;10412136;28;20221;-57
2021/04/08 09:49:47;;;;;;;2.37;1.00;;;19.30;48.10;;;;;;10451827;28;20338;-58
2021/04/08 09:55:10;;;;;;;1.93;0.73;;;19.40;48.10;;;;;;10452033;28;20570;-60
2021/04/08 10:00:33;;;;;;;1.80;0.73;;;19.40;48.10;;;;;;10451198;28;20212;-61
2021/04/08 10:05:55;;;;;;;1.97;0.80;;;19.30;48.00;;;;;;10452435;28;20205;-58
2021/04/08 10:11:26;;;;;;;1.57;0.80;;;19.30;48.10;;;;;;10448990;28;20229;-57
2021/04/08 10:17:03;;;;;;;1.57;0.70;;;19.30;48.20;;;;;;10410418;28;20193;-54
2021/04/08 10:22:24;;;;;;;1.03;0.60;;;19.40;48.20;;;;;;10404478;28;20214;-59
2021/04/08 10:27:54;;;;;;;1.53;0.77;;;19.40;48.20;;;;;;10408392;28;20202;-59
2021/04/08 10:33:17;;;;;;;2.47;0.80;;;19.30;48.20;;;;;;10409854;28;20213;-59
2021/04/08 10:38:39;;;;;;;1.47;0.60;;;19.30;48.20;;;;;;10404785;28;20205;-59
2021/04/08 10:44:19;;;;;;;1.47;0.80;;;19.30;48.30;;;;;;10404254;28;20221;-59
2021/04/08 10:49:45;;;;;;;1.47;0.70;;;19.30;48.90;;;;;;10402608;28;20698;-59
2021/04/08 10:55:09;;;;;;;1.30;0.60;;;19.30;48.30;;;;;;10404534;28;20201;-59
2021/04/08 11:00:31;;;;;;;2.30;0.80;;;19.30;48.30;;;;;;10402736;28;20221;-59
2021/04/08 11:05:53;;;;;;;2.47;0.77;;;19.30;48.20;;;;;;10438919;28;20205;-59
2021/04/08 11:11:24;;;;;;;3.10;0.80;;;19.40;48.20;;;;;;10404159;28;20229;-57
2021/04/08 11:16:47;;;;;;;1.37;0.70;;;19.40;48.20;;;;;;10403283;28;20200;-57
2021/04/08 11:22:12;;;;;;;1.83;1.10;;;19.40;48.20;;;;;;10404518;28;20583;-56
2021/04/08 11:27:39;;;;;;;1.43;0.73;;;19.40;48.30;;;;;;10403739;28;20204;-55
2021/04/08 11:33:01;;;;;;;3.00;1.10;;;19.30;48.30;;;;;;10404169;28;20762;-55
2021/04/08 11:38:24;;;;;;;4.97;1.50;;;19.40;48.40;;;;;;10403858;28;20213;-58
2021/04/08 11:43:48;;;;;;;2.90;1.33;;;19.40;48.40;;;;;;10412052;28;20206;-56
2021/04/08 11:49:17;;;;;;;4.30;1.50;;;19.40;48.40;;;;;;10408403;28;20288;-56
2021/04/08 11:54:57;;;;;;;3.33;1.13;;;19.40;48.50;;;;;;10443546;28;20228;-57
2021/04/08 12:00:19;;;;;;;4.10;1.80;;;19.40;48.60;;;;;;10450722;28;20590;-59
2021/04/08 12:05:41;;;;;;;7.90;1.63;;;19.30;48.60;;;;;;10458522;22;20272;-61
2021/04/08 12:11:03;;;;;;;3.73;1.70;;;19.40;48.70;;;;;;10397929;28;20284;-61
2021/04/08 12:16:27;;;;;;;4.03;1.43;;;19.40;48.60;;;;;;10365724;28;20194;-60
2021/04/08 12:22:00;;;;;;;5.07;1.70;;;19.40;48.60;;;;;;10366738;28;20210;-57
2021/04/08 12:27:22;;;;;;;5.47;1.87;;;19.40;48.50;;;;;;10368876;28;20203;-59
2021/04/08 12:32:44;;;;;;;4.37;1.60;;;19.40;48.50;;;;;;10372553;28;20321;-58
2021/04/08 12:38:06;;;;;;;3.90;1.47;;;19.40;48.50;;;;;;10365927;28;20199;-58
2021/04/08 12:43:30;;;;;;;3.33;1.30;;;19.40;48.50;;;;;;10372268;28;20222;-58
2021/04/08 12:48:51;;;;;;;2.87;1.23;;;19.40;48.40;;;;;;10371971;28;20297;-60
2021/04/08 12:54:14;;;;;;;3.90;1.70;;;19.50;48.40;;;;;;10372461;28;20207;-59
2021/04/08 12:59:37;;;;;;;4.60;1.47;;;19.40;48.40;;;;;;10372428;28;20190;-59
2021/04/08 13:04:59;;;;;;;4.10;1.30;;;19.40;48.40;;;;;;10370229;28;20668;-58
2021/04/08 13:10:22;;;;;;;4.83;1.80;;;19.40;48.30;;;;;;10369204;28;20222;-59
2021/04/08 13:15:44;;;;;;;2.83;1.40;;;19.40;48.30;;;;;;10369646;28;20277;-60
2021/04/08 13:21:05;;;;;;;3.03;1.33;;;19.40;48.20;;;;;;10370216;28;20225;-58
2021/04/08 13:26:28;;;;;;;2.93;1.23;;;19.40;48.20;;;;;;10367168;28;20205;-60
2021/04/08 13:31:50;;;;;;;3.23;1.30;;;19.40;48.20;;;;;;10369924;28;20226;-58
2021/04/08 13:37:12;;;;;;;2.67;1.10;;;19.40;48.20;;;;;;10371224;28;20229;-59
2021/04/08 13:42:36;;;;;;;2.03;1.30;;;19.40;48.20;;;;;;10370550;28;20226;-57
2021/04/08 13:47:57;;;;;;;3.97;1.40;;;19.40;48.20;;;;;;10370211;28;20686;-59
2021/04/08 13:53:19;;;;;;;4.90;1.27;;;19.40;48.20;;;;;;10368980;28;20226;-61
2021/04/08 13:58:41;;;;;;;2.97;1.50;;;19.40;48.20;;;;;;10368965;28;20201;-58
2021/04/08 14:04:03;;;;;;;2.37;0.90;;;19.40;48.20;;;;;;10369268;28;20211;-57
2021/04/08 14:09:25;;;;;;;3.17;1.00;;;19.50;48.30;;;;;;10368648;28;20218;-57
2021/04/08 14:14:48;;;;;;;1.47;0.97;;;19.50;48.30;;;;;;10368968;28;20210;-57
2021/04/08 14:20:11;;;;;;;2.90;1.30;;;19.50;48.40;;;;;;10367404;28;20841;-57
2021/04/08 14:25:33;;;;;;;2.67;1.20;;;19.40;48.50;;;;;;10366055;28;20190;-62
2021/04/08 14:30:56;;;;;;;2.90;1.30;;;19.40;48.50;;;;;;10365084;28;20249;-60
2021/04/08 14:36:17;;;;;;;3.17;1.03;;;19.40;48.40;;;;;;10369525;28;20209;-61
2021/04/08 14:41:39;;;;;;;2.80;1.00;;;19.40;48.40;;;;;;10368102;28;20206;-62
2021/04/08 14:47:01;;;;;;;2.87;1.03;;;19.40;48.40;;;;;;10367640;28;20194;-58
2021/04/08 14:52:23;;;;;;;2.50;0.90;;;19.50;48.50;;;;;;10364576;28;20596;-59
2021/04/08 14:57:45;;;;;;;3.13;1.43;;;19.40;48.50;;;;;;10369415;28;20198;-61
2021/04/08 15:03:07;;;;;;;2.07;1.00;;;19.40;48.50;;;;;;10368955;28;20726;-60
2021/04/08 15:08:29;;;;;;;1.13;0.90;;;19.40;48.50;;;;;;10367953;28;20564;-57
2021/04/08 15:13:50;;;;;;;1.57;0.70;;;19.40;48.50;;;;;;10366302;28;20218;-62
2021/04/08 15:19:13;;;;;;;2.50;1.13;;;19.40;48.40;;;;;;10366952;28;20191;-61
2021/04/08 15:24:35;;;;;;;2.50;1.10;;;19.40;48.40;;;;;;10367283;28;20207;-60
2021/04/08 15:29:57;;;;;;;1.90;1.10;;;19.40;48.40;;;;;;10367184;28;20668;-59
2021/04/08 15:35:22;;;;;;;2.83;1.00;;;19.40;48.50;;;;;;10371740;28;20203;-61
2021/04/08 15:40:44;;;;;;;1.90;0.73;;;19.40;48.50;;;;;;10375425;28;20217;-61
2021/04/08 15:46:06;;;;;;;2.10;0.80;;;19.40;48.50;;;;;;10372650;28;20193;-57
2021/04/08 15:51:29;;;;;;;1.13;0.80;;;19.40;48.50;;;;;;10372862;28;20219;-59
2021/04/08 15:56:50;;;;;;;2.20;0.83;;;19.40;48.50;;;;;;10372857;28;20198;-59
2021/04/08 16:02:12;;;;;;;1.03;0.90;;;19.40;48.50;;;;;;10372827;28;20284;-57
2021/04/08 16:07:35;;;;;;;1.60;0.80;;;19.40;48.60;;;;;;10370847;28;20205;-56
2021/04/08 16:12:56;;;;;;;2.53;0.93;;;19.40;48.60;;;;;;10373274;28;20222;-57
2021/04/08 16:18:18;;;;;;;1.30;0.90;;;19.40;49.30;;;;;;10373958;28;20201;-59
2021/04/08 16:23:40;;;;;;;3.07;1.00;;;19.40;48.70;;;;;;10374294;28;20214;-57
2021/04/08 16:29:02;;;;;;;2.57;1.17;;;19.40;48.80;;;;;;10373339;28;20223;-58
2021/04/08 16:34:24;;;;;;;3.73;1.00;;;19.40;48.70;;;;;;10373885;28;20572;-57
2021/04/08 16:39:46;;;;;;;1.70;0.90;;;19.40;48.80;;;;;;10373436;28;20205;-56
2021/04/08 16:45:10;;;;;;;3.20;1.30;;;19.40;48.80;;;;;;10373542;28;20611;-54
2021/04/08 16:50:31;;;;;;;1.80;0.90;;;19.40;48.90;;;;;;10373180;28;20225;-56
2021/04/08 16:55:54;;;;;;;2.33;1.30;;;19.40;48.90;;;;;;10372285;28;20195;-58
2021/04/08 17:01:16;;;;;;;2.50;1.13;;;19.40;48.90;;;;;;10371543;28;20214;-58
2021/04/08 17:06:37;;;;;;;2.50;1.20;;;19.40;48.90;;;;;;10373151;28;20207;-58
2021/04/08 17:12:00;;;;;;;2.30;0.83;;;19.30;48.90;;;;;;10372184;28;20240;-60
2021/04/08 17:17:22;;;;;;;1.70;1.03;;;19.30;48.90;;;;;;10372739;28;20198;-56
2021/04/08 17:22:44;;;;;;;2.20;0.90;;;19.40;48.90;;;;;;10370435;28;20636;-59
2021/04/08 17:28:07;;;;;;;3.23;0.97;;;19.40;48.80;;;;;;10329388;28;20261;-60
2021/04/08 17:33:28;;;;;;;1.63;1.00;;;19.40;48.80;;;;;;10327812;28;20214;-59
2021/04/08 17:38:50;;;;;;;2.20;1.20;;;19.40;48.90;;;;;;10328992;28;20202;-60
2021/04/08 17:44:13;;;;;;;3.07;1.10;;;19.40;49.00;;;;;;10355585;28;20223;-60
2021/04/08 17:49:34;;;;;;;1.67;1.00;;;19.40;49.10;;;;;;10369765;28;20198;-60
2021/04/08 17:54:56;;;;;;;2.17;1.10;;;19.40;49.10;;;;;;10369547;28;20201;-59
2021/04/08 18:00:21;;;;;;;3.27;1.70;;;19.50;49.20;;;;;;10368984;28;20723;-60
2021/04/08 18:05:42;;;;;;;2.47;1.20;;;19.40;49.50;;;;;;10388784;22;20598;-57
2021/04/08 18:11:05;;;;;;;1.80;1.10;;;19.50;49.60;;;;;;10426296;28;20217;-56
2021/04/08 18:16:28;;;;;;;2.77;1.53;;;19.50;49.60;;;;;;10408742;28;20202;-53
2021/04/08 18:21:49;;;;;;;2.90;1.40;;;19.50;49.60;;;;;;10408493;28;20217;-56
2021/04/08 18:27:11;;;;;;;1.83;1.20;;;19.50;49.50;;;;;;10411559;28;20198;-52
2021/04/08 18:32:34;;;;;;;3.53;1.80;;;19.50;49.50;;;;;;10408020;28;20229;-54
2021/04/08 18:37:55;;;;;;;1.27;1.17;;;19.50;49.60;;;;;;10416040;28;20201;-53
2021/04/08 18:43:17;;;;;;;2.20;1.47;;;19.50;49.60;;;;;;10428213;28;20209;-54
2021/04/08 18:48:40;;;;;;;1.37;1.13;;;19.50;49.70;;;;;;10422021;28;20209;-52
2021/04/08 18:54:01;;;;;;;1.87;1.20;;;19.50;49.60;;;;;;10407914;28;20228;-57
2021/04/08 18:59:23;;;;;;;2.63;1.20;;;19.50;49.50;;;;;;10445705;28;20201;-53
2021/04/08 19:04:46;;;;;;;3.17;1.10;;;19.50;49.50;;;;;;10449890;28;20207;-52
2021/04/08 19:10:08;;;;;;;2.40;1.27;;;19.50;49.60;;;;;;10461568;28;20267;-52
2021/04/08 19:15:30;;;;;;;1.43;1.03;;;19.50;49.60;;;;;;10463078;28;20197;-52
2021/04/08 19:20:53;;;;;;;1.27;1.17;;;19.50;49.70;;;;;;10461091;28;20216;-54
2021/04/08 19:26:14;;;;;;;2.77;1.30;;;19.50;49.60;;;;;;10451701;28;20202;-55
2021/04/08 19:31:37;;;;;;;2.30;1.23;;;19.60;49.70;;;;;;10449284;28;20262;-56
2021/04/08 19:37:00;;;;;;;1.50;0.90;;;19.50;49.70;;;;;;10461870;28;20193;-56
2021/04/08 19:42:22;;;;;;;1.63;0.90;;;19.60;49.90;;;;;;10461575;28;20614;-52
2021/04/08 19:47:44;;;;;;;3.13;1.27;;;19.50;49.70;;;;;;10461907;28;20251;-53
2021/04/08 19:53:06;;;;;;;1.60;1.13;;;19.50;49.80;;;;;;10461705;28;20308;-53
2021/04/08 19:58:28;;;;;;;2.20;1.13;;;19.40;49.80;;;;;;10424769;28;20202;-54
2021/04/08 20:03:50;;;;;;;1.27;1.03;;;19.40;49.90;;;;;;10420707;28;20237;-56
2021/04/08 20:09:13;;;;;;;1.53;1.23;;;19.40;49.90;;;;;;10420286;28;20210;-52
2021/04/08 20:14:34;;;;;;;1.87;0.97;;;19.40;49.80;;;;;;10428471;28;20233;-55
2021/04/08 20:19:56;;;;;;;1.93;1.20;;;19.40;49.80;;;;;;10414693;28;20212;-53
2021/04/08 20:25:18;;;;;;;2.17;1.17;;;19.40;49.90;;;;;;10414009;28;20189;-57
2021/04/08 20:30:40;;;;;;;1.43;0.90;;;19.30;49.90;;;;;;10430568;28;20220;-54
2021/04/08 20:36:03;;;;;;;1.50;1.13;;;19.30;49.90;;;;;;10454325;28;20197;-53
2021/04/08 20:41:25;;;;;;;2.40;1.20;;;19.30;49.90;;;;;;10447855;28;20675;-57
2021/04/08 20:46:47;;;;;;;1.40;0.80;;;19.20;49.90;;;;;;10412631;28;20216;-53
2021/04/08 20:52:08;;;;;;;2.40;1.00;;;19.20;50.00;;;;;;10411665;28;20835;-54
2021/04/08 20:57:31;;;;;;;1.80;1.13;;;19.20;50.20;;;;;;10411315;28;20205;-56
2021/04/08 21:02:53;;;;;;;1.20;0.83;;;19.20;50.10;;;;;;10412829;28;20210;-53
2021/04/08 21:08:15;;;;;;;1.53;0.93;;;19.30;50.20;;;;;;10412312;28;20210;-54
2021/04/08 21:13:37;;;;;;;1.30;0.90;;;19.20;50.20;;;;;;10412347;28;20224;-56
2021/04/08 21:18:59;;;;;;;1.33;0.93;;;19.30;50.20;;;;;;10410911;28;20197;-54
2021/04/08 21:24:20;;;;;;;2.20;1.00;;;19.30;50.30;;;;;;10411967;28;20401;-53
2021/04/08 21:29:43;;;;;;;3.37;1.17;;;19.30;50.40;;;;;;10409360;28;20198;-54
2021/04/08 21:35:06;;;;;;;1.30;0.90;;;19.30;50.50;;;;;;10411517;28;20194;-53
2021/04/08 21:40:28;;;;;;;1.77;0.80;;;19.30;50.50;;;;;;10425276;28;20224;-56
2021/04/08 21:45:51;;;;;;;1.47;1.10;;;19.30;50.60;;;;;;10410832;28;20690;-53
2021/04/08 21:51:12;;;;;;;1.87;0.97;;;19.30;50.50;;;;;;10410615;28;20670;-56
2021/04/08 21:56:34;;;;;;;1.07;0.70;;;19.30;50.60;;;;;;10428384;28;20210;-52
2021/04/08 22:01:57;;;;;;;1.93;0.93;;;19.30;50.70;;;;;;10422893;28;20586;-53
2021/04/08 22:07:19;;;;;;;1.40;0.90;;;19.20;50.60;;;;;;10415877;28;20228;-52
2021/04/08 22:12:41;;;;;;;0.87;0.60;;;19.20;50.50;;;;;;10431264;28;20697;-56
2021/04/08 22:18:05;;;;;;;1.03;0.80;;;19.20;50.50;;;;;;10450899;28;20543;-54
2021/04/08 22:23:29;;;;;;;1.70;0.80;;;19.20;50.40;;;;;;10451174;28;20213;-53
2021/04/08 22:28:50;;;;;;;2.73;1.10;;;19.20;50.50;;;;;;10451304;28;20209;-53
2021/04/08 22:34:13;;;;;;;1.10;1.00;;;19.20;50.50;;;;;;10449563;28;20221;-53
2021/04/08 22:39:35;;;;;;;2.47;1.20;;;19.20;50.30;;;;;;10449690;28;20201;-53
2021/04/08 22:44:57;;;;;;;1.03;0.90;;;19.20;50.30;;;;;;10417440;28;20193;-52
2021/04/08 22:50:21;;;;;;;1.33;1.00;;;19.20;50.30;;;;;;10408860;28;20213;-55
2021/04/08 22:55:42;;;;;;;1.60;1.07;;;19.10;50.30;;;;;;10408343;28;20186;-56
2021/04/08 23:01:06;;;;;;;1.10;1.00;;;19.10;50.40;;;;;;10408655;28;20670;-53
2021/04/08 23:06:29;;;;;;;1.03;0.93;;;19.00;50.30;;;;;;10409459;28;20212;-53
2021/04/08 23:11:54;;;;;;;1.07;0.90;;;19.10;50.40;;;;;;10408854;28;20226;-56
2021/04/08 23:17:16;;;;;;;1.83;1.30;;;19.10;50.30;;;;;;10409185;28;20262;-54
2021/04/08 23:22:39;;;;;;;1.20;1.07;;;19.10;50.10;;;;;;10408733;28;20213;-54
2021/04/08 23:28:01;;;;;;;1.90;1.30;;;19.10;50.20;;;;;;10408238;28;20663;-57
2021/04/08 23:33:22;;;;;;;1.37;1.00;;;19.10;50.10;;;;;;10409546;28;20224;-52
2021/04/08 23:38:45;;;;;;;3.77;1.20;;;19.10;50.10;;;;;;10409318;28;20201;-52
2021/04/08 23:44:07;;;;;;;1.83;0.97;;;19.00;50.00;;;;;;10436585;28;20228;-53
2021/04/08 23:49:29;;;;;;;1.47;0.97;;;19.10;50.00;;;;;;10449242;28;20667;-53
2021/04/08 23:54:51;;;;;;;1.83;0.87;;;19.10;50.00;;;;;;10425929;28;20582;-53
